Barada, Nebraska
Current Conditions -  °F | °C
As of 9:53 PM on Saturday 24 Jan 2015 (Local Time) from KFNB Reporting Station
Light Rain Light Rain  
Wind Chill: 41°   Ceiling: 6500
Heat Index: 46°   Visibility: 10mi
Dew Point: 39°   Wind: 10mph
Humidity: 76%   Direction: 250°WSW
Pressure: 29.66"   Gusts: NA
Location:  40.1276°N, 95.5661°W
Report Text: KFNB 250353Z AUTO 25009KT 10SM -RA FEW049 OVC065 08/04 A2966 RMK AO2 SLP046 P0000 T00780039
Loading
Personal Weather Stations






























Interactive Weather Map New forecast layout! Learn more

10-Day Weather Forecast

Advertisements
Track Severe Weather on mobile